Terminal Aerodrome Forecast
Issued by NWS Wilmington, NC

Home | Current Version | Previous Version | Text Only | Print | Product List | Glossary On
Versions: 1 2 3 4 5 6 7 8 9 10 11 12 13 14 15 16 17 18 19
439
FTUS42 KILM 290002 CCA
TAFMYR
TAF COR
KMYR 290002Z 2900/2924 21008KT P6SM SCT050 BKN090
     FM290500 28004KT P6SM SCT045 BKN120
     FM291200 01008KT P6SM SCT050
     FM291700 06010KT P6SM SCT250
      AMD LTD TO CLD VIS AND WIND 2903/2910=

USA.gov is the U.S. government's official web portal to all federal, state and local government web resources and services.